createdAt,value
2019-03-19T00:00:39.016Z,19.71
2019-03-19T00:01:39.097Z,19.68
2019-03-19T00:02:39.003Z,19.71
2019-03-19T00:03:39.020Z,19.7
2019-03-19T00:04:39.116Z,19.68
2019-03-19T00:05:39.212Z,19.68
2019-03-19T00:06:39.011Z,19.67
2019-03-19T00:07:39.122Z,19.64
2019-03-19T00:08:39.046Z,19.7
2019-03-19T00:09:39.047Z,19.68
2019-03-19T00:10:39.091Z,19.65
2019-03-19T00:11:39.125Z,19.65
2019-03-19T00:12:39.219Z,19.64
2019-03-19T00:13:39.109Z,19.63
2019-03-19T00:14:39.203Z,19.65
2019-03-19T00:15:39.129Z,19.63
2019-03-19T00:16:38.836Z,19.6
2019-03-19T00:17:38.923Z,19.61
2019-03-19T00:18:38.995Z,19.64
2019-03-19T00:19:38.887Z,19.6
2019-03-19T00:20:38.898Z,19.63
2019-03-19T00:21:38.903Z,19.6
2019-03-19T00:22:39.140Z,19.6
2019-03-19T00:23:39.342Z,19.6
2019-03-19T00:24:39.361Z,19.6
2019-03-19T00:25:39.492Z,19.57
2019-03-19T00:26:39.039Z,19.56
2019-03-19T00:27:39.262Z,19.57
2019-03-19T00:28:39.410Z,19.56
2019-03-19T00:29:39.013Z,19.56
2019-03-19T00:30:39.072Z,19.57
2019-03-19T00:31:39.094Z,19.56
2019-03-19T00:32:39.267Z,19.54
2019-03-19T00:33:39.154Z,19.56
2019-03-19T00:34:38.945Z,19.53
2019-03-19T00:35:38.927Z,19.53
2019-03-19T00:36:38.938Z,19.52
2019-03-19T00:37:39.038Z,19.52
2019-03-19T00:38:39.054Z,19.52
2019-03-19T00:39:38.886Z,19.53
2019-03-19T00:40:39.097Z,19.5
2019-03-19T00:41:39.097Z,19.49
2019-03-19T00:42:39.081Z,19.5
2019-03-19T00:43:39.056Z,19.46
2019-03-19T00:44:39.140Z,19.49
2019-03-19T00:45:39.750Z,19.49
2019-03-19T00:46:39.108Z,19.49
2019-03-19T00:47:39.170Z,19.47
2019-03-19T00:48:39.360Z,19.46
2019-03-19T00:49:39.101Z,19.49
2019-03-19T00:50:39.180Z,19.43
2019-03-19T00:51:38.856Z,19.45
2019-03-19T00:52:38.873Z,19.46
2019-03-19T00:53:38.936Z,19.45
2019-03-19T00:54:39.199Z,19.45
2019-03-19T00:55:41.410Z,19.46
2019-03-19T00:56:38.880Z,19.45
2019-03-19T00:57:38.912Z,19.46
2019-03-19T00:58:38.971Z,19.42
2019-03-19T00:59:39.294Z,19.42
2019-03-19T01:00:39.025Z,19.4
2019-03-19T01:01:39.343Z,19.42
2019-03-19T01:02:39.014Z,19.4
2019-03-19T01:03:39.004Z,19.4
2019-03-19T01:04:39.033Z,19.4
2019-03-19T01:05:38.986Z,19.42
2019-03-19T01:06:39.033Z,19.37
2019-03-19T01:07:39.369Z,19.4
2019-03-19T01:08:39.591Z,19.37
2019-03-19T01:09:38.978Z,19.39
2019-03-19T01:10:38.933Z,19.39
2019-03-19T01:11:38.990Z,19.37
2019-03-19T01:12:38.939Z,19.36
2019-03-19T01:13:39.038Z,19.39
2019-03-19T01:14:38.955Z,19.36
2019-03-19T01:15:38.975Z,19.37
2019-03-19T01:16:38.993Z,19.36
2019-03-19T01:17:39.089Z,19.35
2019-03-19T01:18:39.065Z,19.35
2019-03-19T01:19:39.099Z,19.35
2019-03-19T01:20:39.207Z,19.33
2019-03-19T01:21:39.118Z,19.36
2019-03-19T01:22:39.226Z,19.36
2019-03-19T01:23:39.079Z,19.32
2019-03-19T01:24:39.175Z,19.3
2019-03-19T01:25:55.408Z,19.33
2019-03-19T01:26:38.985Z,19.3
2019-03-19T01:27:38.984Z,19.32
2019-03-19T01:28:39.005Z,19.33
2019-03-19T01:29:39.239Z,19.3
2019-03-19T01:30:39.073Z,19.3
2019-03-19T01:31:38.923Z,19.3
2019-03-19T01:32:38.960Z,19.32
2019-03-19T01:33:38.960Z,19.3
2019-03-19T01:34:39.115Z,19.27
2019-03-19T01:35:39.041Z,19.29
2019-03-19T01:36:38.966Z,19.29
2019-03-19T01:37:39.016Z,19.27
2019-03-19T01:38:39.060Z,19.27
2019-03-19T01:39:39.124Z,19.27
2019-03-19T01:40:39.122Z,19.26
2019-03-19T01:41:39.105Z,19.26
2019-03-19T01:42:39.270Z,19.25
2019-03-19T01:43:38.953Z,19.25
2019-03-19T01:44:39.007Z,19.25
2019-03-19T01:45:39.421Z,19.26
2019-03-19T01:46:38.903Z,19.27
2019-03-19T01:47:38.979Z,19.23
2019-03-19T01:48:38.985Z,19.23
2019-03-19T01:49:38.958Z,19.23
2019-03-19T01:50:39.286Z,19.23
2019-03-19T01:51:39.504Z,19.22
2019-03-19T01:52:39.168Z,19.22
2019-03-19T01:53:38.997Z,19.22
2019-03-19T01:54:39.155Z,19.23
2019-03-19T01:55:39.090Z,19.19
2019-03-19T01:56:39.079Z,19.2
2019-03-19T01:57:39.149Z,19.2
2019-03-19T01:58:39.102Z,19.2
2019-03-19T01:59:38.780Z,19.22
2019-03-19T02:00:38.818Z,19.2
2019-03-19T02:01:38.886Z,19.18
2019-03-19T02:02:38.912Z,19.18
2019-03-19T02:03:38.848Z,19.18
2019-03-19T02:04:39.090Z,19.19
2019-03-19T02:05:38.925Z,19.19
2019-03-19T02:06:38.941Z,19.19
2019-03-19T02:07:38.998Z,19.18
2019-03-19T02:08:39.033Z,19.19
2019-03-19T02:09:38.937Z,19.18
2019-03-19T02:10:39.115Z,19.16
2019-03-19T02:11:39.207Z,19.15
2019-03-19T02:12:39.491Z,19.16
2019-03-19T02:13:39.036Z,19.16
2019-03-19T02:14:39.057Z,19.16
2019-03-19T02:15:39.253Z,19.16
2019-03-19T02:16:38.885Z,19.15
2019-03-19T02:17:39.003Z,19.15
2019-03-19T02:18:38.905Z,19.15
2019-03-19T02:19:38.904Z,19.15
2019-03-19T02:20:38.934Z,19.15
2019-03-19T02:21:38.914Z,19.15
2019-03-19T02:22:38.995Z,19.11
2019-03-19T02:23:38.965Z,19.13
2019-03-19T02:24:39.011Z,19.13
2019-03-19T02:25:39.007Z,19.12
2019-03-19T02:26:39.019Z,19.12
2019-03-19T02:27:38.786Z,19.12
2019-03-19T02:28:39.008Z,19.11
2019-03-19T02:29:39.120Z,19.09
2019-03-19T02:30:39.110Z,19.11
2019-03-19T02:31:39.092Z,19.11
2019-03-19T02:32:39.236Z,19.09
2019-03-19T02:33:39.320Z,19.09
2019-03-19T02:34:38.861Z,19.06
2019-03-19T02:35:38.904Z,19.08
2019-03-19T02:36:38.913Z,19.08
2019-03-19T02:37:38.914Z,19.11
2019-03-19T02:38:38.923Z,19.06
2019-03-19T02:39:39.001Z,19.08
2019-03-19T02:40:39.084Z,19.09
2019-03-19T02:41:39.051Z,19.06
2019-03-19T02:42:39.148Z,19.08
2019-03-19T02:43:39.076Z,19.08
2019-03-19T02:44:39.021Z,19.05
2019-03-19T02:45:39.027Z,19.06
2019-03-19T02:46:39.051Z,19.05
2019-03-19T02:47:39.055Z,19.06
2019-03-19T02:48:40.175Z,19.05
2019-03-19T02:49:39.030Z,19.05
2019-03-19T02:50:39.035Z,19.05
2019-03-19T02:51:39.008Z,19.03
2019-03-19T02:52:38.890Z,19.05
2019-03-19T02:53:38.953Z,19.03
2019-03-19T02:54:38.962Z,19.03
2019-03-19T02:55:39.267Z,19.05
2019-03-19T02:56:39.345Z,19.03
2019-03-19T02:57:38.964Z,19.03
2019-03-19T02:58:39.015Z,19.05
2019-03-19T02:59:38.966Z,19.02
2019-03-19T03:00:39.199Z,19.01
2019-03-19T03:01:39.200Z,19.01
2019-03-19T03:02:39.158Z,19.01
2019-03-19T03:03:39.057Z,19.02
2019-03-19T03:04:39.152Z,18.99
2019-03-19T03:05:39.095Z,19.01
2019-03-19T03:06:39.164Z,19.01
2019-03-19T03:07:39.113Z,18.99
2019-03-19T03:08:39.107Z,18.99
2019-03-19T03:09:39.010Z,18.99
2019-03-19T03:10:38.828Z,18.97
2019-03-19T03:11:38.871Z,18.97
2019-03-19T03:12:38.865Z,18.99
2019-03-19T03:13:38.937Z,18.98
2019-03-19T03:14:39.049Z,18.98
2019-03-19T03:15:39.023Z,18.98
2019-03-19T03:16:38.933Z,18.97
2019-03-19T03:17:38.995Z,18.97
2019-03-19T03:18:39.415Z,18.98
2019-03-19T03:19:39.048Z,18.98
2019-03-19T03:20:39.038Z,18.94
2019-03-19T03:21:38.974Z,18.98
2019-03-19T03:22:39.279Z,18.97
2019-03-19T03:23:39.017Z,18.95
2019-03-19T03:24:39.080Z,18.95
2019-03-19T03:25:39.020Z,18.94
2019-03-19T03:26:49.123Z,18.94
2019-03-19T03:27:38.862Z,18.95
2019-03-19T03:28:38.851Z,18.94
2019-03-19T03:29:39.050Z,18.94
2019-03-19T03:30:39.095Z,18.95
2019-03-19T03:31:39.098Z,18.92
2019-03-19T03:32:39.051Z,18.92
2019-03-19T03:33:39.301Z,18.94
2019-03-19T03:34:39.116Z,18.92
2019-03-19T03:35:38.915Z,18.9
2019-03-19T03:36:38.982Z,18.91
2019-03-19T03:37:39.004Z,18.91
2019-03-19T03:38:38.791Z,18.9
2019-03-19T03:39:38.965Z,18.92
2019-03-19T03:40:38.991Z,18.88
2019-03-19T03:41:39.287Z,18.88
2019-03-19T03:42:38.999Z,18.9
2019-03-19T03:43:39.046Z,18.91
2019-03-19T03:44:39.066Z,18.9
2019-03-19T03:45:39.073Z,18.9
2019-03-19T03:46:38.857Z,18.91
2019-03-19T03:47:38.822Z,18.91
2019-03-19T03:48:38.891Z,18.88
2019-03-19T03:49:38.917Z,18.88
2019-03-19T03:50:38.975Z,18.9
2019-03-19T03:51:39.029Z,18.88
2019-03-19T03:52:38.813Z,18.87
2019-03-19T03:53:38.934Z,18.88
2019-03-19T03:54:39.177Z,18.88
2019-03-19T03:55:39.073Z,18.88
2019-03-19T03:56:38.965Z,18.85
2019-03-19T03:57:38.960Z,18.87
2019-03-19T03:58:38.950Z,18.85
2019-03-19T03:59:39.013Z,18.87
2019-03-19T04:00:39.299Z,18.87
2019-03-19T04:01:39.361Z,18.85
2019-03-19T04:02:38.996Z,18.85
2019-03-19T04:03:39.021Z,18.87
2019-03-19T04:04:38.782Z,18.84
2019-03-19T04:05:38.884Z,18.84
2019-03-19T04:06:38.877Z,18.85
2019-03-19T04:07:38.896Z,18.81
2019-03-19T04:08:38.951Z,18.84
2019-03-19T04:09:38.852Z,18.84
2019-03-19T04:10:39.042Z,18.84
2019-03-19T04:11:39.044Z,18.84
2019-03-19T04:12:38.930Z,18.83
2019-03-19T04:13:38.921Z,18.84
2019-03-19T04:14:38.970Z,18.83
2019-03-19T04:15:38.980Z,18.83
2019-03-19T04:16:39.108Z,18.81
2019-03-19T04:17:39.057Z,18.81
2019-03-19T04:18:39.063Z,18.81
2019-03-19T04:19:39.065Z,18.81
2019-03-19T04:20:39.216Z,18.81
2019-03-19T04:21:39.087Z,18.81
2019-03-19T04:22:39.065Z,18.8
2019-03-19T04:23:38.852Z,18.78
2019-03-19T04:24:38.971Z,18.8
2019-03-19T04:25:38.765Z,18.78
2019-03-19T04:26:38.914Z,18.78
2019-03-19T04:27:41.512Z,18.81
2019-03-19T04:28:39.006Z,18.78
2019-03-19T04:29:38.955Z,18.8
2019-03-19T04:30:39.021Z,18.8
2019-03-19T04:31:38.919Z,18.78
2019-03-19T04:32:38.938Z,18.77
2019-03-19T04:33:38.888Z,18.75
2019-03-19T04:34:38.881Z,18.75
2019-03-19T04:35:38.997Z,18.77
2019-03-19T04:36:38.995Z,18.77
2019-03-19T04:37:39.025Z,18.78
2019-03-19T04:38:39.147Z,18.77
2019-03-19T04:39:38.788Z,18.78
2019-03-19T04:40:38.831Z,18.78
2019-03-19T04:41:38.842Z,18.78
2019-03-19T04:42:38.884Z,18.75
2019-03-19T04:43:38.898Z,18.77
2019-03-19T04:44:39.003Z,18.78
2019-03-19T04:45:38.992Z,18.77
2019-03-19T04:46:38.877Z,18.78
2019-03-19T04:47:38.914Z,18.78
2019-03-19T04:48:38.877Z,18.81
2019-03-19T04:49:38.947Z,18.78
2019-03-19T04:50:38.922Z,18.81
2019-03-19T04:51:38.926Z,18.84
2019-03-19T04:52:38.954Z,18.84
2019-03-19T04:53:38.943Z,18.85
2019-03-19T04:54:39.008Z,18.87
2019-03-19T04:55:38.973Z,18.87
2019-03-19T04:56:39.006Z,18.87
2019-03-19T04:57:39.039Z,18.88
2019-03-19T04:58:38.810Z,18.9
2019-03-19T04:59:38.920Z,18.9
2019-03-19T05:00:38.818Z,18.91
2019-03-19T05:01:38.759Z,18.94
2019-03-19T05:02:38.880Z,18.94
2019-03-19T05:03:38.927Z,18.98
2019-03-19T05:04:38.967Z,18.99
2019-03-19T05:05:39.107Z,18.98
2019-03-19T05:06:39.018Z,19.02
2019-03-19T05:07:38.976Z,19.02
2019-03-19T05:08:39.042Z,19.06
2019-03-19T05:09:38.976Z,19.06
2019-03-19T05:10:38.910Z,19.08
2019-03-19T05:11:38.965Z,19.09
2019-03-19T05:12:38.897Z,19.11
2019-03-19T05:13:38.973Z,19.15
2019-03-19T05:14:39.119Z,19.16
2019-03-19T05:15:39.137Z,19.16
2019-03-19T05:16:38.772Z,19.19
2019-03-19T05:17:38.833Z,19.22
2019-03-19T05:18:38.899Z,19.22
2019-03-19T05:19:38.925Z,19.23
2019-03-19T05:20:38.858Z,19.26
2019-03-19T05:21:38.950Z,19.25
2019-03-19T05:22:38.990Z,19.29
2019-03-19T05:23:39.167Z,19.29
2019-03-19T05:24:38.932Z,19.33
2019-03-19T05:25:38.969Z,19.35
2019-03-19T05:26:39.028Z,19.36
2019-03-19T05:27:39.255Z,19.37
2019-03-19T05:28:39.392Z,19.37
2019-03-19T05:29:39.263Z,19.4
2019-03-19T05:30:39.008Z,19.42
2019-03-19T05:31:39.003Z,19.46
2019-03-19T05:32:39.129Z,19.45
2019-03-19T05:33:39.143Z,19.5
2019-03-19T05:34:38.875Z,19.47
2019-03-19T05:35:38.820Z,19.5
2019-03-19T05:36:38.802Z,19.49
2019-03-19T05:37:38.760Z,19.53
2019-03-19T05:38:38.869Z,19.54
2019-03-19T05:39:38.822Z,19.54
2019-03-19T05:40:38.862Z,19.54
2019-03-19T05:41:38.812Z,19.58
2019-03-19T05:42:38.851Z,19.6
2019-03-19T05:43:38.986Z,19.61
2019-03-19T05:44:38.910Z,19.63
2019-03-19T05:45:38.874Z,19.65
2019-03-19T05:46:38.914Z,19.67
2019-03-19T05:47:41.271Z,19.65
2019-03-19T05:48:38.968Z,19.68
2019-03-19T05:49:39.027Z,19.68
2019-03-19T05:50:39.153Z,19.7
2019-03-19T05:51:38.902Z,19.73
2019-03-19T05:52:38.865Z,19.73
2019-03-19T05:53:38.865Z,19.74
2019-03-19T05:54:38.839Z,19.78
2019-03-19T05:55:38.970Z,19.75
2019-03-19T05:56:38.861Z,19.77
2019-03-19T05:57:50.883Z,19.77
2019-03-19T05:58:38.949Z,19.81
2019-03-19T05:59:40.370Z,19.8
2019-03-19T06:00:38.932Z,19.81
2019-03-19T06:01:38.914Z,19.84
2019-03-19T06:02:38.918Z,19.84
2019-03-19T06:03:38.891Z,19.86
2019-03-19T06:04:38.972Z,19.85
2019-03-19T06:05:38.960Z,19.85
2019-03-19T06:06:39.002Z,19.89
2019-03-19T06:07:39.009Z,19.89
2019-03-19T06:08:38.971Z,19.91
2019-03-19T06:09:38.995Z,19.91
2019-03-19T06:10:39.093Z,19.92
2019-03-19T06:11:38.800Z,19.93
2019-03-19T06:12:38.792Z,19.91
2019-03-19T06:13:38.899Z,19.92
2019-03-19T06:14:38.890Z,19.93
2019-03-19T06:15:38.838Z,19.96
2019-03-19T06:16:38.865Z,19.96
2019-03-19T06:17:38.860Z,19.98
2019-03-19T06:18:38.903Z,19.99
2019-03-19T06:19:39.039Z,19.95
2019-03-19T06:20:39.012Z,20.01
2019-03-19T06:21:38.935Z,19.99
2019-03-19T06:22:38.977Z,20.01
2019-03-19T06:23:39.040Z,20.02
2019-03-19T06:24:38.931Z,20.07
2019-03-19T06:25:39.040Z,20.07
2019-03-19T06:26:39.047Z,20.05
2019-03-19T06:27:38.798Z,20.05
2019-03-19T06:28:38.845Z,20.07
2019-03-19T06:29:38.767Z,20.09
2019-03-19T06:30:38.814Z,20.08
2019-03-19T06:31:38.900Z,20.08
2019-03-19T06:32:39.332Z,20.09
2019-03-19T06:33:39.339Z,20.12
2019-03-19T06:34:38.885Z,20.09
2019-03-19T06:35:38.878Z,20.13
2019-03-19T06:36:38.926Z,20.12
2019-03-19T06:37:38.907Z,20.13
2019-03-19T06:38:38.874Z,20.12
2019-03-19T06:39:38.929Z,20.16
2019-03-19T06:40:38.948Z,20.18
2019-03-19T06:41:38.908Z,20.16
2019-03-19T06:42:39.108Z,20.18
2019-03-19T06:43:38.987Z,20.19
2019-03-19T06:44:39.068Z,20.19
2019-03-19T06:45:39.007Z,20.19
2019-03-19T06:46:38.767Z,20.2
2019-03-19T06:47:38.710Z,20.19
2019-03-19T06:48:38.748Z,20.22
2019-03-19T06:49:38.809Z,20.22
2019-03-19T06:50:45.984Z,20.25
2019-03-19T06:51:38.829Z,20.25
2019-03-19T06:52:38.822Z,20.26
2019-03-19T06:53:38.945Z,20.26
2019-03-19T06:54:38.910Z,20.25
2019-03-19T06:55:38.907Z,20.27
2019-03-19T06:56:38.840Z,20.29
2019-03-19T06:57:39.917Z,20.26
2019-03-19T06:58:38.929Z,20.29
2019-03-19T06:59:39.025Z,20.27
2019-03-19T07:00:38.924Z,20.3
2019-03-19T07:01:38.907Z,20.3
2019-03-19T07:02:38.936Z,20.3
2019-03-19T07:03:39.039Z,20.3
2019-03-19T07:04:38.861Z,20.32
2019-03-19T07:05:38.785Z,20.33
2019-03-19T07:06:38.835Z,20.32
2019-03-19T07:07:38.759Z,20.35
2019-03-19T07:08:38.874Z,20.32
2019-03-19T07:09:38.816Z,20.33
2019-03-19T07:10:38.904Z,20.35
2019-03-19T07:11:38.895Z,20.35
2019-03-19T07:12:38.867Z,20.36
2019-03-19T07:13:38.917Z,20.33
2019-03-19T07:14:38.966Z,20.36
2019-03-19T07:15:38.981Z,20.36
2019-03-19T07:16:39.375Z,20.36
2019-03-19T07:17:38.979Z,20.36
2019-03-19T07:18:38.972Z,20.36
2019-03-19T07:19:38.969Z,20.37
2019-03-19T07:20:38.960Z,20.37
2019-03-19T07:21:38.981Z,20.39
2019-03-19T07:22:38.753Z,20.39
2019-03-19T07:23:38.741Z,20.37
2019-03-19T07:24:38.755Z,20.37
2019-03-19T07:25:38.795Z,20.36
2019-03-19T07:26:38.773Z,20.37
2019-03-19T07:27:38.887Z,20.37
2019-03-19T07:28:38.803Z,20.37
2019-03-19T07:29:38.794Z,20.39
2019-03-19T07:30:41.225Z,20.4
2019-03-19T07:31:38.952Z,20.4
2019-03-19T07:32:38.859Z,20.4
2019-03-19T07:33:38.896Z,20.4
2019-03-19T07:34:38.945Z,20.4
2019-03-19T07:35:38.870Z,20.39
2019-03-19T07:36:38.939Z,20.4
2019-03-19T07:37:39.105Z,20.4
2019-03-19T07:38:40.872Z,20.43
2019-03-19T07:39:38.962Z,20.42
2019-03-19T07:40:38.934Z,20.4
2019-03-19T07:41:38.821Z,20.43
2019-03-19T07:42:38.792Z,20.43
2019-03-19T07:43:39.012Z,20.42
2019-03-19T07:44:38.787Z,20.44
2019-03-19T07:45:38.841Z,20.43
2019-03-19T07:46:38.859Z,20.43
2019-03-19T07:47:38.839Z,20.44
2019-03-19T07:48:39.049Z,20.46
2019-03-19T07:49:39.212Z,20.43
2019-03-19T07:50:38.913Z,20.46
2019-03-19T07:51:39.005Z,20.47
2019-03-19T07:52:39.070Z,20.44
2019-03-19T07:53:39.037Z,20.46
2019-03-19T07:54:38.995Z,20.43
2019-03-19T07:55:39.086Z,20.47
2019-03-19T07:56:39.085Z,20.47
2019-03-19T07:57:39.017Z,20.47
2019-03-19T07:58:45.953Z,20.46
2019-03-19T07:59:39.099Z,20.46
2019-03-19T08:00:38.725Z,20.48
2019-03-19T08:01:38.714Z,20.47
2019-03-19T08:02:38.773Z,20.47
2019-03-19T08:03:38.744Z,20.46
2019-03-19T08:04:38.789Z,20.48
2019-03-19T08:05:38.742Z,20.47
2019-03-19T08:06:39.060Z,20.47
2019-03-19T08:07:39.031Z,20.51
2019-03-19T08:08:38.904Z,20.5
2019-03-19T08:09:40.109Z,20.5
2019-03-19T08:10:38.956Z,20.51
2019-03-19T08:11:38.925Z,20.48
2019-03-19T08:12:38.889Z,20.48
2019-03-19T08:13:39.248Z,20.51
2019-03-19T08:14:38.975Z,20.53
2019-03-19T08:15:38.700Z,20.53
2019-03-19T08:16:38.670Z,20.53
2019-03-19T08:17:38.740Z,20.54
2019-03-19T08:18:38.759Z,20.54
2019-03-19T08:19:38.803Z,20.57
2019-03-19T08:20:38.795Z,20.59
2019-03-19T08:21:38.873Z,20.59
2019-03-19T08:22:38.872Z,20.6
2019-03-19T08:23:38.794Z,20.63
2019-03-19T08:24:38.887Z,20.64
2019-03-19T08:25:38.892Z,20.64
2019-03-19T08:26:38.854Z,20.66
2019-03-19T08:27:38.879Z,20.66
2019-03-19T08:28:38.943Z,20.67
2019-03-19T08:29:38.942Z,20.7
2019-03-19T08:30:38.920Z,20.71
2019-03-19T08:31:38.991Z,20.71
2019-03-19T08:32:38.931Z,20.74
2019-03-19T08:33:38.984Z,20.7
2019-03-19T08:34:38.972Z,20.71
2019-03-19T08:35:38.713Z,20.74
2019-03-19T08:36:38.809Z,20.75
2019-03-19T08:37:38.734Z,20.75
2019-03-19T08:38:38.710Z,20.75
2019-03-19T08:39:38.730Z,20.77
2019-03-19T08:40:38.750Z,20.75
2019-03-19T08:41:38.858Z,20.75
2019-03-19T08:42:39.153Z,20.75
2019-03-19T08:43:38.893Z,20.75
2019-03-19T08:44:39.011Z,20.78
2019-03-19T08:45:38.917Z,20.75
2019-03-19T08:46:38.871Z,20.75
2019-03-19T08:47:38.849Z,20.75
2019-03-19T08:48:38.895Z,20.77
2019-03-19T08:49:39.080Z,20.75
2019-03-19T08:50:38.842Z,20.74
2019-03-19T08:51:38.954Z,20.78
2019-03-19T08:52:38.707Z,20.74
2019-03-19T08:53:38.695Z,20.74
2019-03-19T08:54:38.915Z,20.75
2019-03-19T08:55:38.923Z,20.77
2019-03-19T08:56:38.886Z,20.77
2019-03-19T08:57:38.796Z,20.75
2019-03-19T08:58:38.884Z,20.75
2019-03-19T08:59:38.834Z,20.77
2019-03-19T09:00:38.924Z,20.77
2019-03-19T09:01:38.891Z,20.78
2019-03-19T09:02:38.847Z,20.78
2019-03-19T09:03:38.961Z,20.75
2019-03-19T09:04:38.964Z,20.77
2019-03-19T09:05:38.961Z,20.78
2019-03-19T09:06:38.925Z,20.75
2019-03-19T09:07:39.005Z,20.77
2019-03-19T09:08:38.789Z,20.77
2019-03-19T09:09:38.736Z,20.78
2019-03-19T09:10:38.933Z,20.77
2019-03-19T09:11:38.986Z,20.8
2019-03-19T09:12:38.775Z,20.78
2019-03-19T09:13:38.786Z,20.8
2019-03-19T09:14:38.754Z,20.8
2019-03-19T09:15:38.780Z,20.8
2019-03-19T09:16:38.751Z,20.8
2019-03-19T09:17:38.876Z,20.81
2019-03-19T09:18:38.979Z,20.78
2019-03-19T09:19:38.921Z,20.82
2019-03-19T09:20:38.881Z,20.8
2019-03-19T09:21:38.889Z,20.82
2019-03-19T09:22:38.937Z,20.82
2019-03-19T09:23:38.875Z,20.84
2019-03-19T09:24:38.969Z,20.81
2019-03-19T09:25:38.976Z,20.81
2019-03-19T09:26:38.728Z,20.84
2019-03-19T09:27:38.723Z,20.82
2019-03-19T09:28:38.776Z,20.84
2019-03-19T09:29:38.721Z,20.81
2019-03-19T09:30:38.740Z,20.82
2019-03-19T09:31:38.819Z,20.81
2019-03-19T09:32:38.857Z,20.82
2019-03-19T09:33:38.884Z,20.81
2019-03-19T09:34:38.804Z,20.82
2019-03-19T09:35:38.825Z,20.81
2019-03-19T09:36:38.868Z,20.82
2019-03-19T09:37:59.445Z,20.84
2019-03-19T09:38:38.873Z,20.82
2019-03-19T09:39:38.984Z,20.81
2019-03-19T09:40:38.896Z,20.82
2019-03-19T09:41:38.899Z,20.82
2019-03-19T09:42:38.989Z,20.82
2019-03-19T09:43:39.202Z,20.82
2019-03-19T09:44:38.721Z,20.82
2019-03-19T09:45:38.767Z,20.82
2019-03-19T09:46:38.704Z,20.82
2019-03-19T09:47:38.897Z,20.82
2019-03-19T09:48:38.702Z,20.82
2019-03-19T09:49:38.990Z,20.82
2019-03-19T09:50:38.734Z,20.82
2019-03-19T09:51:38.770Z,20.84
2019-03-19T09:52:38.788Z,20.85
2019-03-19T09:53:38.781Z,20.84
2019-03-19T09:54:38.820Z,20.84
2019-03-19T09:55:38.895Z,20.82
2019-03-19T09:56:38.912Z,20.82
2019-03-19T09:57:38.914Z,20.84
2019-03-19T09:58:38.883Z,20.82
2019-03-19T09:59:38.864Z,20.85
2019-03-19T10:00:38.700Z,20.87
2019-03-19T10:01:38.741Z,20.85
2019-03-19T10:02:38.846Z,20.88
2019-03-19T10:03:38.727Z,20.85
2019-03-19T10:04:38.809Z,20.87
2019-03-19T10:05:38.745Z,20.85
2019-03-19T10:06:39.059Z,20.85
2019-03-19T10:07:38.793Z,20.88
2019-03-19T10:08:38.830Z,20.87
2019-03-19T10:09:38.896Z,20.85
2019-03-19T10:10:39.398Z,20.89
2019-03-19T10:11:38.836Z,20.88
2019-03-19T10:12:38.975Z,20.89
2019-03-19T10:13:38.858Z,20.87
2019-03-19T10:14:38.856Z,20.85
2019-03-19T10:15:39.226Z,20.87
2019-03-19T10:16:38.911Z,20.88
2019-03-19T10:17:39.006Z,20.89
2019-03-19T10:18:38.613Z,20.88
2019-03-19T10:19:38.627Z,20.89
2019-03-19T10:20:38.712Z,20.88
2019-03-19T10:21:38.753Z,20.91
2019-03-19T10:22:38.824Z,20.88
2019-03-19T10:23:38.758Z,20.87
2019-03-19T10:24:38.765Z,20.85
2019-03-19T10:25:38.837Z,20.85
2019-03-19T10:26:38.763Z,20.87
2019-03-19T10:27:38.750Z,20.88
2019-03-19T10:28:38.911Z,20.85
2019-03-19T10:29:39.110Z,20.88
2019-03-19T10:30:38.839Z,20.87
2019-03-19T10:31:38.817Z,20.87
2019-03-19T10:32:38.815Z,20.85
2019-03-19T10:33:38.926Z,20.87
2019-03-19T10:34:38.837Z,20.87
2019-03-19T10:35:38.856Z,20.87
2019-03-19T10:36:38.826Z,20.85
2019-03-19T10:37:38.850Z,20.85
2019-03-19T10:38:38.744Z,20.85
2019-03-19T10:39:38.768Z,20.85
2019-03-19T10:40:38.634Z,20.87
2019-03-19T10:41:38.835Z,20.84
2019-03-19T10:42:38.873Z,20.85
2019-03-19T10:43:38.786Z,20.84
2019-03-19T10:44:38.780Z,20.88
2019-03-19T10:45:38.803Z,20.85
2019-03-19T10:46:38.804Z,20.87
2019-03-19T10:47:38.820Z,20.87
2019-03-19T10:48:38.864Z,20.87
2019-03-19T10:49:38.980Z,20.87
2019-03-19T10:50:39.097Z,20.88
2019-03-19T10:51:38.892Z,20.85
2019-03-19T10:52:38.909Z,20.85
2019-03-19T10:53:38.968Z,20.87
2019-03-19T10:54:38.595Z,20.88
2019-03-19T10:55:38.776Z,20.85
2019-03-19T10:56:39.323Z,20.88
2019-03-19T10:57:38.616Z,20.89
2019-03-19T10:58:38.626Z,20.87
2019-03-19T10:59:49.707Z,20.89
2019-03-19T11:00:38.660Z,20.88
2019-03-19T11:01:38.704Z,20.88
2019-03-19T11:02:38.710Z,20.88
2019-03-19T11:03:38.829Z,20.89
2019-03-19T11:04:38.765Z,20.89
2019-03-19T11:05:38.787Z,20.91
2019-03-19T11:06:38.842Z,20.89
2019-03-19T11:07:38.902Z,20.92
2019-03-19T11:08:38.697Z,20.94
2019-03-19T11:09:38.864Z,20.88
2019-03-19T11:10:38.863Z,20.89
2019-03-19T11:11:38.947Z,20.91
2019-03-19T11:12:38.703Z,20.91
2019-03-19T11:13:38.692Z,20.91
2019-03-19T11:14:38.695Z,20.88
2019-03-19T11:15:38.699Z,20.92
2019-03-19T11:16:38.796Z,20.94
2019-03-19T11:17:38.790Z,20.94
2019-03-19T11:18:38.771Z,20.92
2019-03-19T11:19:38.772Z,20.94
2019-03-19T11:20:38.777Z,20.92
2019-03-19T11:21:40.637Z,20.94
2019-03-19T11:22:38.841Z,20.92
2019-03-19T11:23:38.824Z,20.91
2019-03-19T11:24:38.831Z,20.94
2019-03-19T11:25:38.869Z,20.94
2019-03-19T11:26:38.913Z,20.94
2019-03-19T11:27:38.891Z,20.94
2019-03-19T11:28:38.997Z,20.91
2019-03-19T11:29:38.632Z,20.92
2019-03-19T11:30:38.562Z,20.94
2019-03-19T11:31:38.593Z,20.92
2019-03-19T11:32:38.631Z,20.92
2019-03-19T11:33:38.747Z,20.91
2019-03-19T11:34:40.094Z,20.91
2019-03-19T11:35:38.685Z,20.92
2019-03-19T11:36:38.743Z,20.91
2019-03-19T11:37:38.817Z,20.91
2019-03-19T11:38:38.692Z,20.92
2019-03-19T11:39:38.832Z,20.91
2019-03-19T11:40:38.867Z,20.92
2019-03-19T11:41:38.770Z,20.92
2019-03-19T11:42:38.933Z,20.92
2019-03-19T11:43:38.821Z,20.92
2019-03-19T11:44:38.825Z,20.92
2019-03-19T11:45:38.934Z,20.94
2019-03-19T11:46:39.139Z,20.94
2019-03-19T11:47:38.684Z,20.92
2019-03-19T11:48:38.651Z,20.92
2019-03-19T11:49:38.680Z,20.94
2019-03-19T11:50:38.679Z,20.94
2019-03-19T11:51:38.716Z,20.94
2019-03-19T11:52:40.533Z,20.94
2019-03-19T11:53:38.851Z,20.95
2019-03-19T11:54:38.714Z,20.94
2019-03-19T11:55:38.806Z,20.95
2019-03-19T11:56:38.731Z,20.95
2019-03-19T11:57:38.826Z,20.95
2019-03-19T11:58:38.843Z,20.95
2019-03-19T11:59:38.796Z,20.97
2019-03-19T12:00:39.190Z,20.97
2019-03-19T12:01:38.861Z,20.97
2019-03-19T12:02:38.839Z,20.94
2019-03-19T12:03:39.567Z,20.94
2019-03-19T12:04:39.163Z,20.95
2019-03-19T12:05:39.481Z,20.97
2019-03-19T12:06:38.647Z,20.98
2019-03-19T12:07:38.636Z,20.97
2019-03-19T12:08:38.626Z,20.98
2019-03-19T12:09:40.472Z,20.97
2019-03-19T12:10:38.842Z,20.97
2019-03-19T12:11:38.692Z,20.99
2019-03-19T12:12:38.790Z,20.97
2019-03-19T12:13:38.873Z,20.98
2019-03-19T12:14:38.772Z,20.98
2019-03-19T12:15:38.939Z,20.97
2019-03-19T12:16:38.786Z,20.97
2019-03-19T12:17:38.841Z,20.97
2019-03-19T12:18:38.870Z,20.95
2019-03-19T12:19:38.887Z,20.98
2019-03-19T12:20:38.805Z,20.95
2019-03-19T12:21:38.858Z,20.97
2019-03-19T12:22:39.022Z,20.98
2019-03-19T12:23:38.656Z,20.98
2019-03-19T12:24:38.706Z,20.98
2019-03-19T12:25:38.784Z,20.97
2019-03-19T12:26:38.697Z,20.97
2019-03-19T12:27:38.719Z,20.97
2019-03-19T12:28:40.222Z,20.98
2019-03-19T12:29:38.766Z,20.97
2019-03-19T12:30:38.743Z,20.95
2019-03-19T12:31:38.774Z,20.95
2019-03-19T12:32:38.758Z,20.97
2019-03-19T12:33:41.942Z,20.97
2019-03-19T12:34:38.904Z,20.97
2019-03-19T12:35:38.849Z,20.95
2019-03-19T12:36:38.769Z,20.92
2019-03-19T12:37:38.855Z,20.92
2019-03-19T12:38:38.901Z,20.92
2019-03-19T12:39:38.910Z,20.94
2019-03-19T12:40:38.675Z,20.94
2019-03-19T12:41:38.626Z,20.92
2019-03-19T12:42:38.620Z,20.94
2019-03-19T12:43:38.694Z,20.92
2019-03-19T12:44:38.650Z,20.92
2019-03-19T12:45:38.679Z,20.94
2019-03-19T12:46:38.731Z,20.92
2019-03-19T12:47:38.697Z,20.92
2019-03-19T12:48:38.664Z,20.94
2019-03-19T12:49:38.716Z,20.95
2019-03-19T12:50:38.743Z,20.94
2019-03-19T12:51:38.801Z,20.97
2019-03-19T12:52:38.845Z,20.94
2019-03-19T12:53:38.816Z,20.92
2019-03-19T12:54:38.926Z,20.92